Time;durP1;ratioP1;P1;durP2;ratioP2;P2;SDS_P1;SDS_P2;PMS_P1;PMS_P2;Temp;Humidity;BMP_temperature;BMP_pressure;BME280_temperature;BME280_humidity;BME280_pressure;Samples;Min_cycle;Max_cycle;Signal;HPM_P1;HPM_P2
2023/10/15 00:00:19;;;;;;;5.30;0.93;;;;;;;14.39;60.26;101877.25;5030280;28;20031;-50
2023/10/15 00:02:46;;;;;;;5.93;0.88;;;;;;;14.44;60.39;101883.44;5044261;22;20042;-45
2023/10/15 00:05:20;;;;;;;6.25;0.90;;;;;;;14.41;60.92;101887.75;5028540;28;20033;-44
2023/10/15 00:07:47;;;;;;;9.00;0.97;;;;;;;14.26;63.34;101887.50;5030444;28;20034;-47
2023/10/15 00:10:14;;;;;;;3.08;0.80;;;;;;;14.33;62.90;101884.13;5030038;28;20037;-42
2023/10/15 00:12:41;;;;;;;2.97;0.82;;;;;;;14.33;62.49;101878.88;5030367;28;20029;-47
2023/10/15 00:15:11;;;;;;;8.32;1.00;;;;;;;14.20;63.77;101883.94;5030517;28;20455;-44
2023/10/15 00:17:38;;;;;;;3.65;0.88;;;;;;;14.21;64.18;101882.16;5031170;28;20044;-44
2023/10/15 00:20:06;;;;;;;4.35;0.90;;;;;;;14.19;64.68;101882.19;5030951;28;20037;-42
2023/10/15 00:22:31;;;;;;;5.35;0.98;;;;;;;14.22;65.04;101881.31;5031099;28;20510;-45
2023/10/15 00:24:57;;;;;;;6.43;1.10;;;;;;;13.95;66.40;101873.06;5029587;28;20030;-47
2023/10/15 00:27:22;;;;;;;6.28;0.93;;;;;;;13.73;65.42;101870.06;5028614;28;20037;-42
2023/10/15 00:29:48;;;;;;;11.85;1.02;;;;;;;13.96;64.42;101872.19;5028012;28;20470;-43
2023/10/15 00:32:13;;;;;;;5.85;0.98;;;;;;;14.01;63.25;101868.78;5029044;28;20069;-46
2023/10/15 00:34:39;;;;;;;5.07;0.80;;;;;;;14.21;62.92;101879.53;5029633;28;20037;-44
2023/10/15 00:37:05;;;;;;;5.45;1.00;;;;;;;14.22;63.08;101876.97;5029447;28;20046;-43
2023/10/15 00:39:30;;;;;;;3.78;0.90;;;;;;;14.27;63.02;101884.03;5030198;28;20061;-46
2023/10/15 00:41:56;;;;;;;4.35;0.93;;;;;;;14.22;63.08;101891.81;5029489;28;20045;-44
2023/10/15 00:44:22;;;;;;;5.50;1.15;;;;;;;13.99;64.06;101917.69;5030202;28;20045;-47
2023/10/15 00:46:54;;;;;;;9.60;1.20;;;;;;;13.53;65.56;101929.16;5029673;28;20124;-46
2023/10/15 00:49:24;;;;;;;5.55;1.25;;;;;;;12.97;66.65;101920.16;5028279;28;20029;-46
2023/10/15 00:51:50;;;;;;;7.45;1.30;;;;;;;12.69;67.26;101915.19;5029753;28;20041;-41
2023/10/15 00:54:16;;;;;;;6.85;1.52;;;;;;;12.64;64.15;101915.09;5029560;28;20492;-47
2023/10/15 00:56:44;;;;;;;7.63;1.30;;;;;;;12.60;65.32;101902.81;5029666;28;20053;-43
2023/10/15 01:01:39;;;;;;;7.32;1.33;;;;;;;12.46;66.57;101901.63;5029596;28;20095;-47
2023/10/15 01:04:09;;;;;;;4.93;1.23;;;;;;;12.25;68.79;101895.94;5028941;28;20038;-45
2023/10/15 01:06:38;;;;;;;6.20;1.10;;;;;;;12.27;69.32;101886.38;5029405;28;20079;-44
2023/10/15 01:11:44;;;;;;;7.38;1.40;;;;;;;11.66;72.14;101906.66;5029474;28;20391;-44
2023/10/15 01:14:25;;;;;;;4.43;1.08;;;;;;;11.82;72.16;101910.59;5028839;28;20570;-42
2023/10/15 01:16:51;;;;;;;4.65;1.08;;;;;;;11.55;74.13;101923.78;5029506;28;20090;-44
2023/10/15 01:19:18;;;;;;;4.95;1.02;;;;;;;11.60;74.35;101934.34;5029166;28;20026;-45
2023/10/15 01:21:58;;;;;;;7.13;1.27;;;;;;;11.64;74.47;101944.94;5029380;28;20029;-44
2023/10/15 01:24:25;;;;;;;3.90;0.85;;;;;;;11.67;75.05;101925.84;5028895;28;20029;-42
2023/10/15 01:27:27;;;;;;;3.67;0.93;;;;;;;11.99;73.51;101913.59;5029733;28;20045;-43
2023/10/15 01:29:48;;;;;;;6.88;1.00;;;;;;;12.22;72.58;101904.56;5026434;28;20029;-41
2023/10/15 01:32:16;;;;;;;3.15;0.90;;;;;;;12.27;72.36;101897.72;5029289;28;20064;-41
2023/10/15 01:34:44;;;;;;;6.78;1.00;;;;;;;12.09;72.20;101892.94;5030804;28;20029;-41
2023/10/15 01:39:52;;;;;;;3.10;0.90;;;;;;;12.15;71.49;101892.19;5043237;28;20040;-44
2023/10/15 01:44:58;;;;;;;4.60;1.00;;;;;;;12.29;70.97;101901.25;5035211;28;20022;-41
2023/10/15 01:47:28;;;;;;;5.32;1.10;;;;;;;12.29;71.24;101902.97;5034336;28;20045;-45
2023/10/15 01:49:56;;;;;;;4.95;0.90;;;;;;;12.24;71.88;101888.94;5031829;28;20030;-42
2023/10/15 01:52:32;;;;;;;5.32;1.15;;;;;;;11.89;73.11;101882.88;5029458;28;20048;-45
2023/10/15 01:55:03;;;;;;;2.92;0.95;;;;;;;11.84;74.19;101911.50;5031032;28;20107;-42
2023/10/15 01:57:29;;;;;;;5.90;1.02;;;;;;;11.84;74.57;101913.22;5033164;28;20037;-42
2023/10/15 02:00:05;;;;;;;3.50;0.85;;;;;;;12.08;73.04;101909.47;5032189;28;20526;-45
2023/10/15 02:02:30;;;;;;;3.03;0.82;;;;;;;12.14;72.43;101888.69;5031496;28;20091;-49
2023/10/15 02:04:57;;;;;;;3.05;0.80;;;;;;;12.20;71.99;101882.72;5032629;28;20029;-42
2023/10/15 02:07:23;;;;;;;2.78;0.90;;;;;;;12.19;71.90;101879.25;5033084;28;20547;-41
2023/10/15 02:09:48;;;;;;;3.28;0.80;;;;;;;12.20;71.67;101882.72;5033006;28;20160;-42
2023/10/15 02:12:18;;;;;;;1.67;0.68;;;;;;;12.25;71.73;101883.75;5031534;28;20419;-41
2023/10/15 02:14:47;;;;;;;4.85;1.08;;;;;;;11.31;76.55;101916.19;5032848;28;20037;-46
2023/10/15 02:17:18;;;;;;;5.47;1.40;;;;;;;11.37;77.74;101954.63;5032384;28;20068;-43
2023/10/15 02:19:44;;;;;;;5.50;1.40;;;;;;;11.74;77.15;101966.97;5033534;28;20029;-42
2023/10/15 02:22:14;;;;;;;3.92;1.00;;;;;;;11.12;76.85;101963.50;5032926;28;20038;-48
2023/10/15 02:24:47;;;;;;;2.65;1.02;;;;;;;11.34;74.74;101951.97;5033875;28;20044;-42
2023/10/15 02:27:25;;;;;;;2.60;1.30;;;;;;;11.61;74.09;101946.56;5032647;28;20392;-43
2023/10/15 02:29:53;;;;;;;1.63;0.68;;;;;;;11.56;73.14;101932.50;5032303;28;20048;-42
2023/10/15 02:34:52;;;;;;;2.05;0.80;;;;;;;11.73;72.43;101908.63;5031899;28;20084;-46
2023/10/15 02:37:27;;;;;;;2.15;0.85;;;;;;;11.47;72.22;101921.81;5032173;28;20045;-46
2023/10/15 02:39:54;;;;;;;2.85;0.70;;;;;;;11.10;73.43;101936.47;5031702;28;20026;-46
2023/10/15 02:42:20;;;;;;;2.85;0.68;;;;;;;10.63;72.56;101932.50;5031689;28;20488;-46
2023/10/15 02:44:50;;;;;;;2.63;0.80;;;;;;;11.09;71.24;101912.97;5032008;28;20034;-43
2023/10/15 02:47:19;;;;;;;4.88;0.70;;;;;;;10.81;70.74;101927.81;5031676;28;20124;-45
2023/10/15 02:49:52;;;;;;;2.05;0.80;;;;;;;11.10;68.77;101914.75;5031758;28;20037;-42
2023/10/15 02:52:19;;;;;;;2.50;0.60;;;;;;;11.34;70.61;101918.03;5031358;28;20033;-40
2023/10/15 02:54:45;;;;;;;3.60;0.70;;;;;;;11.21;70.14;101895.03;5031604;28;20385;-43
2023/10/15 02:57:15;;;;;;;2.00;0.60;;;;;;;11.49;68.86;101894.91;5031292;28;20121;-44
2023/10/15 02:59:52;;;;;;;0.90;0.65;;;;;;;11.48;71.27;101884.41;5030306;28;20137;-42
2023/10/15 03:02:19;;;;;;;3.72;0.70;;;;;;;11.88;69.11;101887.22;5031103;28;20099;-46
2023/10/15 03:04:54;;;;;;;1.67;0.55;;;;;;;11.65;70.36;101890.94;5031498;28;20029;-44
2023/10/15 03:07:30;;;;;;;3.70;0.90;;;;;;;11.71;70.43;101889.38;5030645;28;20064;-45
2023/10/15 03:09:56;;;;;;;1.27;0.70;;;;;;;11.80;69.96;101880.91;5031328;28;20120;-42
2023/10/15 03:12:23;;;;;;;2.38;0.68;;;;;;;11.72;70.28;101878.09;5032682;28;20101;-44
2023/10/15 03:14:48;;;;;;;2.78;0.65;;;;;;;11.44;72.78;101898.25;5031928;28;20277;-45
2023/10/15 03:17:14;;;;;;;1.83;0.77;;;;;;;11.62;71.93;101899.59;5031967;28;20040;-47
2023/10/15 03:19:42;;;;;;;2.15;0.73;;;;;;;11.74;71.67;101909.50;5032318;28;20091;-43
2023/10/15 03:22:11;;;;;;;2.97;0.82;;;;;;;11.72;71.69;101914.66;5031432;28;20041;-44
2023/10/15 03:24:37;;;;;;;2.78;0.73;;;;;;;11.31;74.30;101920.53;5033297;28;20030;-42
2023/10/15 03:27:05;;;;;;;4.55;0.77;;;;;;;11.76;71.99;101934.84;5032987;28;20466;-45
2023/10/15 03:29:30;;;;;;;2.95;0.80;;;;;;;11.57;72.22;101926.44;5032080;28;20091;-44
2023/10/15 03:32:09;;;;;;;4.82;1.00;;;;;;;12.05;71.40;101919.88;5031562;28;20037;-42
2023/10/15 03:34:47;;;;;;;2.08;0.90;;;;;;;12.09;71.04;101919.09;5031041;28;20415;-42
2023/10/15 03:37:15;;;;;;;5.30;1.00;;;;;;;11.78;71.76;101927.91;5032554;28;20033;-42
2023/10/15 03:44:44;;;;;;;3.78;0.80;;;;;;;11.92;69.85;101928.25;5031100;28;20242;-45
2023/10/15 03:47:21;;;;;;;2.47;0.70;;;;;;;12.14;69.02;101922.69;5030565;28;20033;-45
2023/10/15 03:49:47;;;;;;;4.75;0.80;;;;;;;12.13;67.74;101923.56;5032282;28;20120;-44
2023/10/15 03:52:20;;;;;;;3.35;0.85;;;;;;;11.88;69.51;101923.81;5036385;28;20485;-44
2023/10/15 03:54:47;;;;;;;1.85;0.60;;;;;;;12.09;67.82;101926.03;5032508;28;20402;-42
2023/10/15 03:57:17;;;;;;;3.80;0.80;;;;;;;12.02;67.58;101922.41;5030269;28;20496;-43
2023/10/15 03:59:44;;;;;;;5.32;1.30;;;;;;;11.91;67.96;101926.47;5030920;28;20099;-42
2023/10/15 04:02:22;;;;;;;4.90;0.80;;;;;;;11.84;67.75;101929.78;5030131;28;20041;-46
2023/10/15 04:04:48;;;;;;;2.50;0.80;;;;;;;11.74;68.52;101931.28;5030558;28;20104;-48
2023/10/15 04:07:21;;;;;;;5.53;0.90;;;;;;;11.70;68.79;101929.44;5030819;28;20053;-42
2023/10/15 04:09:50;;;;;;;3.67;0.80;;;;;;;11.71;69.03;101931.16;5032771;28;20029;-42
2023/10/15 04:12:18;;;;;;;1.45;0.60;;;;;;;11.71;69.37;101920.72;5031758;28;20041;-41
2023/10/15 04:14:44;;;;;;;5.10;0.82;;;;;;;11.77;70.23;101925.28;5032061;28;20029;-44
2023/10/15 04:17:10;;;;;;;3.42;0.90;;;;;;;11.88;70.16;101923.81;5030346;28;20535;-42
2023/10/15 04:19:36;;;;;;;2.35;0.80;;;;;;;11.82;70.72;101921.03;5030482;28;20064;-44
2023/10/15 04:22:13;;;;;;;3.70;0.82;;;;;;;11.85;71.65;101925.44;5029831;28;20069;-45
2023/10/15 04:24:42;;;;;;;3.53;1.10;;;;;;;11.85;72.20;101926.34;5030477;28;20064;-42
2023/10/15 04:27:15;;;;;;;4.85;1.00;;;;;;;11.98;71.44;101920.56;5029775;28;20411;-49
2023/10/15 04:29:47;;;;;;;2.83;0.70;;;;;;;12.02;71.47;101926.75;5030227;28;20466;-44
2023/10/15 04:32:17;;;;;;;4.45;0.98;;;;;;;12.12;71.29;101932.25;5029654;28;20053;-42
2023/10/15 04:34:43;;;;;;;4.30;0.88;;;;;;;12.07;71.72;101927.75;5030113;28;20034;-42
2023/10/15 04:37:10;;;;;;;4.75;1.02;;;;;;;11.41;74.21;101953.88;5029771;28;20039;-44
2023/10/15 04:39:46;;;;;;;5.80;1.08;;;;;;;11.70;70.92;101952.94;5028761;28;20037;-40
2023/10/15 04:42:20;;;;;;;7.63;1.08;;;;;;;11.65;71.17;101966.69;5029141;28;20033;-40
2023/10/15 04:44:46;;;;;;;7.65;1.33;;;;;;;12.03;69.65;101966.00;5029714;28;20134;-45
2023/10/15 04:47:12;;;;;;;8.55;1.02;;;;;;;11.89;70.62;101972.63;5029495;28;20407;-44
2023/10/15 04:49:37;;;;;;;4.05;0.85;;;;;;;12.15;68.82;101968.00;5029672;28;20033;-42
2023/10/15 04:52:13;;;;;;;6.38;0.82;;;;;;;12.31;68.28;101958.81;5028958;28;20048;-45
2023/10/15 04:54:39;;;;;;;9.48;1.45;;;;;;;12.01;69.73;101951.13;5029700;28;20454;-45
2023/10/15 04:57:04;;;;;;;11.77;1.30;;;;;;;12.10;68.61;101957.44;5029353;28;20033;-45
2023/10/15 04:59:29;;;;;;;4.97;1.13;;;;;;;12.11;68.09;101963.56;5028384;28;20535;-42
2023/10/15 05:01:55;;;;;;;5.43;0.85;;;;;;;12.12;67.58;101963.63;5028937;28;20129;-46
2023/10/15 05:04:21;;;;;;;5.40;0.95;;;;;;;11.97;67.21;101970.16;5029469;28;20033;-44
2023/10/15 05:06:48;;;;;;;3.55;0.82;;;;;;;11.56;64.54;101972.56;5029688;28;20487;-41
2023/10/15 05:09:21;;;;;;;7.25;1.10;;;;;;;11.90;63.41;101960.41;5029078;28;20021;-42
2023/10/15 05:11:53;;;;;;;6.63;0.82;;;;;;;12.04;63.97;101970.38;5029576;28;20541;-42
2023/10/15 05:14:18;;;;;;;3.20;0.70;;;;;;;12.02;63.85;101965.94;5029650;28;20049;-42
2023/10/15 05:16:47;;;;;;;7.72;0.95;;;;;;;12.01;63.23;101961.59;5029990;28;20546;-45
2023/10/15 05:19:16;;;;;;;3.63;0.60;;;;;;;11.97;61.93;101954.50;5029518;28;20045;-43
2023/10/15 05:21:42;;;;;;;2.20;0.80;;;;;;;11.94;61.77;101952.72;5029539;28;20026;-46
2023/10/15 05:24:08;;;;;;;3.53;0.70;;;;;;;11.90;62.38;101957.78;5029159;28;20491;-48
2023/10/15 05:26:33;;;;;;;5.55;0.75;;;;;;;12.07;62.25;101954.78;5029915;28;20034;-43
2023/10/15 05:28:59;;;;;;;2.58;0.68;;;;;;;12.04;62.67;101956.41;5029563;28;20166;-44
2023/10/15 05:31:24;;;;;;;2.85;0.60;;;;;;;12.00;62.77;101950.25;5032076;28;20052;-46
2023/10/15 05:33:51;;;;;;;6.00;0.60;;;;;;;11.93;62.99;101956.16;5033389;28;20121;-43
2023/10/15 05:36:16;;;;;;;2.42;0.65;;;;;;;11.88;63.65;101954.28;5032926;28;20026;-49
2023/10/15 05:38:41;;;;;;;1.25;0.50;;;;;;;11.83;64.12;101966.34;5033234;28;20033;-46
2023/10/15 05:41:07;;;;;;;1.75;0.70;;;;;;;11.77;65.12;101965.31;5032621;28;20514;-45
2023/10/15 05:43:34;;;;;;;2.83;0.60;;;;;;;11.68;67.02;101974.63;5032766;28;20041;-43
2023/10/15 05:46:00;;;;;;;3.25;0.57;;;;;;;11.75;67.78;101973.97;5032526;28;20041;-43
2023/10/15 05:48:25;;;;;;;2.15;0.50;;;;;;;11.88;68.03;101980.41;5033177;28;20034;-45
2023/10/15 05:50:51;;;;;;;3.67;0.80;;;;;;;11.89;67.76;101983.06;5033375;28;20088;-43
2023/10/15 05:53:16;;;;;;;4.07;0.57;;;;;;;11.81;68.87;101997.66;5032400;28;20029;-45
2023/10/15 05:55:42;;;;;;;4.30;0.73;;;;;;;11.62;69.66;102000.59;5036128;28;20037;-42
2023/10/15 05:58:08;;;;;;;3.33;0.60;;;;;;;11.80;68.76;101995.88;5035775;28;20045;-43
2023/10/15 06:00:39;;;;;;;6.22;0.90;;;;;;;11.72;68.31;101999.97;5036269;28;20028;-41
2023/10/15 06:03:05;;;;;;;8.75;0.80;;;;;;;11.62;69.39;102009.31;5058646;22;20045;-51
2023/10/15 06:05:31;;;;;;;4.55;0.77;;;;;;;11.78;68.06;101998.44;5054025;28;20115;-49
2023/10/15 06:07:56;;;;;;;3.90;0.80;;;;;;;12.01;67.58;102008.63;5053040;28;20116;-45
2023/10/15 06:10:22;;;;;;;3.70;0.75;;;;;;;12.14;67.13;102006.34;5052735;28;20040;-45
2023/10/15 06:12:47;;;;;;;4.63;0.70;;;;;;;12.46;65.71;101994.06;5040720;28;20029;-46
2023/10/15 06:15:15;;;;;;;3.45;0.88;;;;;;;12.47;65.65;101987.97;5030803;28;20029;-46
2023/10/15 06:17:40;;;;;;;5.03;0.88;;;;;;;12.43;65.58;101991.38;5033176;28;20037;-48
2023/10/15 06:20:12;;;;;;;9.55;1.10;;;;;;;12.43;65.92;101995.72;5032585;28;20171;-45
2023/10/15 06:22:47;;;;;;;4.95;0.63;;;;;;;12.58;65.26;101999.56;5032864;28;20039;-45
2023/10/15 06:25:16;;;;;;;4.07;0.70;;;;;;;12.56;65.49;102003.00;5032115;28;20586;-46
2023/10/15 06:27:42;;;;;;;5.70;0.73;;;;;;;12.20;67.71;102019.56;5032823;28;20037;-45
2023/10/15 06:30:14;;;;;;;5.75;0.93;;;;;;;12.10;68.37;102019.31;5032116;28;20068;-45
2023/10/15 06:32:43;;;;;;;5.38;0.80;;;;;;;12.32;67.21;102011.13;5031989;28;20554;-47
2023/10/15 06:35:09;;;;;;;8.40;1.02;;;;;;;12.12;67.31;102005.44;5031389;28;20199;-46
2023/10/15 06:37:38;;;;;;;5.10;1.00;;;;;;;11.97;66.34;102006.75;5030272;28;20076;-47
2023/10/15 06:40:05;;;;;;;7.03;1.17;;;;;;;12.00;64.10;102014.69;5030996;28;20041;-45
2023/10/15 06:42:30;;;;;;;4.53;0.80;;;;;;;12.40;62.36;102022.69;5031928;28;20044;-47
2023/10/15 06:44:56;;;;;;;3.88;0.70;;;;;;;12.32;63.37;102013.75;5030993;28;20034;-45
2023/10/15 06:47:21;;;;;;;4.78;0.90;;;;;;;12.78;63.01;102018.34;5031749;28;20041;-49
2023/10/15 06:49:49;;;;;;;5.55;0.98;;;;;;;12.47;60.60;102021.09;5031787;28;20037;-47
2023/10/15 06:52:14;;;;;;;5.90;1.00;;;;;;;12.62;60.19;102015.34;5030977;28;20387;-46
2023/10/15 06:54:40;;;;;;;2.90;0.63;;;;;;;13.00;59.34;102020.56;5031370;28;20025;-50
2023/10/15 06:57:05;;;;;;;3.92;0.70;;;;;;;13.07;57.72;102023.31;5031211;28;20045;-47
2023/10/15 06:59:32;;;;;;;6.15;1.00;;;;;;;12.87;59.09;102031.63;5031463;28;20160;-46
2023/10/15 07:01:58;;;;;;;6.97;0.98;;;;;;;12.56;63.08;102037.88;5030754;28;20116;-47
2023/10/15 07:04:27;;;;;;;7.80;1.13;;;;;;;12.82;64.48;102035.88;5031474;28;20036;-46
2023/10/15 07:06:52;;;;;;;7.93;1.42;;;;;;;12.43;64.52;102059.38;5031089;28;20052;-49
2023/10/15 07:09:18;;;;;;;5.60;0.80;;;;;;;12.62;64.12;102054.59;5031385;28;20029;-46
2023/10/15 07:11:44;;;;;;;4.57;0.85;;;;;;;12.00;63.52;102044.34;5031260;28;20034;-46
2023/10/15 07:14:09;;;;;;;4.32;0.82;;;;;;;12.06;64.61;102060.19;5030672;28;20045;-48
2023/10/15 07:16:34;;;;;;;7.25;0.90;;;;;;;11.67;65.34;102048.59;5031502;28;20136;-49
2023/10/15 07:19:01;;;;;;;6.50;0.80;;;;;;;12.28;64.42;102066.81;5031041;28;20041;-48
2023/10/15 07:21:26;;;;;;;8.00;1.10;;;;;;;11.71;65.40;102069.63;5031460;28;20618;-45
2023/10/15 07:23:53;;;;;;;7.13;1.00;;;;;;;12.02;64.32;102070.47;5031274;28;20025;-47
2023/10/15 07:26:18;;;;;;;6.90;1.00;;;;;;;12.44;62.05;102087.28;5031200;28;20033;-45
2023/10/15 07:28:43;;;;;;;6.75;1.10;;;;;;;12.21;60.90;102091.03;5031489;28;20048;-46
2023/10/15 07:31:09;;;;;;;3.30;0.80;;;;;;;12.26;60.43;102094.66;5030868;28;20095;-43
2023/10/15 07:33:34;;;;;;;4.65;0.80;;;;;;;12.53;59.05;102094.47;5031280;28;20056;-46
2023/10/15 07:36:01;;;;;;;4.85;0.85;;;;;;;12.79;56.34;102090.78;5031038;28;20132;-49
2023/10/15 07:38:27;;;;;;;5.05;0.75;;;;;;;13.12;55.74;102106.38;5031647;28;20051;-45
2023/10/15 07:40:55;;;;;;;5.78;1.00;;;;;;;12.97;56.87;102112.13;5031543;28;20492;-53
2023/10/15 07:43:20;;;;;;;3.67;0.70;;;;;;;12.74;57.48;102109.84;5031670;28;20033;-48
2023/10/15 07:45:45;;;;;;;7.22;1.00;;;;;;;12.75;59.16;102111.56;5031163;28;20033;-46
2023/10/15 07:48:11;;;;;;;5.68;1.50;;;;;;;13.37;58.66;102120.91;5031243;28;20117;-45
2023/10/15 07:50:37;;;;;;;4.53;0.88;;;;;;;13.22;58.50;102110.09;5033745;28;20057;-47
2023/10/15 07:53:03;;;;;;;4.85;0.70;;;;;;;12.89;58.28;102118.91;5030900;28;20121;-49
2023/10/15 07:55:29;;;;;;;4.75;0.70;;;;;;;12.96;58.79;102126.06;5031359;28;20061;-50
2023/10/15 07:57:55;;;;;;;5.85;1.25;;;;;;;13.10;60.49;102130.75;5030051;28;20061;-52
2023/10/15 08:00:25;;;;;;;3.72;1.00;;;;;;;12.93;60.48;102132.94;5030410;28;20430;-45
2023/10/15 08:02:57;;;;;;;7.97;0.88;;;;;;;12.72;61.95;102140.28;5029933;28;20323;-49
2023/10/15 08:05:22;;;;;;;6.75;0.90;;;;;;;13.02;61.54;102151.50;5029826;28;20473;-44
2023/10/15 08:07:50;;;;;;;7.95;1.15;;;;;;;13.37;61.32;102148.00;5030512;28;20029;-50
2023/10/15 08:10:17;;;;;;;8.50;1.40;;;;;;;13.68;60.88;102143.41;5029681;28;20053;-44
2023/10/15 08:12:43;;;;;;;7.13;1.38;;;;;;;13.69;59.86;102153.03;5029694;28;20037;-48
2023/10/15 08:15:08;;;;;;;7.75;1.13;;;;;;;13.51;59.12;102150.91;5029461;28;20407;-47
2023/10/15 08:17:34;;;;;;;10.15;1.10;;;;;;;13.57;59.19;102166.78;5029946;28;20440;-47
2023/10/15 08:19:59;;;;;;;6.45;1.08;;;;;;;12.78;64.45;102193.66;5029463;28;20037;-46
2023/10/15 08:22:28;;;;;;;7.32;0.95;;;;;;;13.24;63.88;102182.59;5029924;28;20508;-45
2023/10/15 08:24:53;;;;;;;7.57;1.23;;;;;;;13.25;63.24;102165.16;5029243;28;20114;-43
2023/10/15 08:27:19;;;;;;;4.93;0.88;;;;;;;13.34;62.91;102163.66;5029917;28;20069;-45
2023/10/15 08:29:44;;;;;;;3.50;0.90;;;;;;;13.08;64.19;102171.72;5030173;28;20038;-44
2023/10/15 08:32:20;;;;;;;3.08;0.70;;;;;;;12.85;65.22;102186.88;5029536;28;20037;-47
2023/10/15 08:34:46;;;;;;;7.28;0.90;;;;;;;12.94;66.60;102187.97;5029999;28;20037;-47
2023/10/15 08:37:12;;;;;;;3.65;0.70;;;;;;;13.23;65.56;102179.97;5029430;28;20037;-47
2023/10/15 08:39:40;;;;;;;3.90;0.82;;;;;;;13.29;65.83;102178.38;5029653;28;20407;-48
2023/10/15 08:42:20;;;;;;;3.40;0.75;;;;;;;13.42;67.04;102186.53;5028743;28;20045;-50
2023/10/15 08:44:49;;;;;;;6.22;0.82;;;;;;;13.36;67.99;102190.75;5028416;28;20492;-45
2023/10/15 08:47:15;;;;;;;3.63;0.77;;;;;;;13.46;69.19;102190.97;5029543;28;20526;-47
2023/10/15 08:49:49;;;;;;;5.82;1.10;;;;;;;13.23;67.98;102188.72;5030091;28;20102;-45
2023/10/15 08:52:16;;;;;;;5.13;0.90;;;;;;;13.76;66.18;102183.78;5029538;28;20033;-46
2023/10/15 08:54:44;;;;;;;5.63;0.80;;;;;;;13.49;65.72;102180.53;5029849;28;20037;-46
2023/10/15 08:57:10;;;;;;;5.40;0.73;;;;;;;13.96;64.63;102182.47;5029769;28;20168;-48
2023/10/15 08:59:35;;;;;;;4.50;0.70;;;;;;;13.96;63.16;102190.31;5030704;28;20072;-45
2023/10/15 09:02:05;;;;;;;5.93;0.70;;;;;;;13.89;61.93;102198.91;5029992;28;20045;-46
2023/10/15 09:04:31;;;;;;;3.15;0.68;;;;;;;13.72;60.65;102208.16;5033882;28;20036;-44
2023/10/15 09:07:01;;;;;;;6.43;1.10;;;;;;;13.19;59.62;102214.78;5034007;28;20491;-44
2023/10/15 09:09:27;;;;;;;7.47;1.13;;;;;;;13.55;59.20;102210.38;5034301;28;20041;-45
2023/10/15 09:11:54;;;;;;;4.22;0.80;;;;;;;13.46;59.72;102215.44;5033835;28;20045;-43
2023/10/15 09:14:45;;;;;;;4.22;0.90;;;;;;;13.44;61.77;102221.47;5036342;28;20029;-50
2023/10/15 09:17:12;;;;;;;7.50;1.13;;;;;;;13.46;62.06;102217.16;5039595;28;20037;-48
2023/10/15 09:19:38;;;;;;;6.60;1.35;;;;;;;13.30;62.95;102227.28;5034036;28;20065;-44
2023/10/15 09:22:08;;;;;;;5.72;0.82;;;;;;;13.33;63.53;102240.44;5033001;28;20041;-45
2023/10/15 09:24:34;;;;;;;11.65;2.13;;;;;;;13.46;63.26;102246.88;5033488;28;20040;-44
2023/10/15 09:27:00;;;;;;;8.05;1.90;;;;;;;13.19;64.78;102256.66;5032698;28;20033;-45
2023/10/15 09:29:30;;;;;;;8.35;1.25;;;;;;;13.33;64.36;102260.53;5033400;28;20634;-46
2023/10/15 09:32:02;;;;;;;7.93;1.92;;;;;;;12.68;67.89;102261.44;5032610;28;20045;-45
2023/10/15 09:34:29;;;;;;;6.97;1.15;;;;;;;12.79;66.48;102260.88;5033901;28;20034;-44
2023/10/15 09:36:54;;;;;;;4.45;0.90;;;;;;;13.20;66.37;102261.06;5035751;28;20099;-44
2023/10/15 09:39:19;;;;;;;6.10;1.27;;;;;;;13.55;65.77;102257.53;5034058;28;20068;-43
2023/10/15 09:41:45;;;;;;;7.30;0.93;;;;;;;13.81;65.21;102261.66;5033051;28;20083;-46
2023/10/15 09:44:14;;;;;;;4.75;1.17;;;;;;;13.89;65.66;102268.81;5032554;28;20086;-45
2023/10/15 09:46:43;;;;;;;8.88;1.30;;;;;;;13.60;66.00;102284.75;5031691;28;20087;-48
2023/10/15 09:49:10;;;;;;;5.97;1.00;;;;;;;13.85;65.51;102273.06;5032616;28;20407;-47
2023/10/15 09:51:37;;;;;;;4.95;0.70;;;;;;;13.67;62.24;102272.66;5032737;28;20516;-44
2023/10/15 09:54:03;;;;;;;4.70;0.90;;;;;;;13.48;61.23;102273.13;5032212;28;20037;-47
2023/10/15 09:56:30;;;;;;;7.32;1.50;;;;;;;13.92;57.12;102279.34;5033220;28;20044;-42
2023/10/15 09:58:56;;;;;;;7.47;0.90;;;;;;;13.74;58.60;102283.31;5032379;28;20042;-49
2023/10/15 10:01:27;;;;;;;5.80;1.05;;;;;;;13.86;58.31;102282.72;5032938;28;20039;-43
2023/10/15 10:04:15;;;;;;;6.63;1.00;;;;;;;14.11;58.24;102286.75;5032133;28;20037;-44
2023/10/15 10:06:53;;;;;;;6.22;1.25;;;;;;;13.96;57.92;102281.19;5032629;28;20034;-49
2023/10/15 10:09:55;;;;;;;4.50;1.17;;;;;;;14.58;56.60;102279.88;5032275;28;20767;-44
2023/10/15 10:13:08;;;;;;;6.95;1.00;;;;;;;14.30;52.66;102278.44;5031813;28;20037;-48
2023/10/15 10:15:47;;;;;;;8.10;1.17;;;;;;;14.44;53.93;102276.13;5009194;28;20393;-45
2023/10/15 10:18:13;;;;;;;4.93;1.02;;;;;;;14.58;52.19;102274.63;5011113;28;20137;-44
2023/10/15 10:20:39;;;;;;;5.03;1.00;;;;;;;14.83;50.42;102273.34;5024391;28;20112;-44
2023/10/15 10:23:05;;;;;;;5.13;0.82;;;;;;;15.12;51.17;102287.03;5033801;28;20507;-45
2023/10/15 10:25:38;;;;;;;4.38;0.80;;;;;;;15.18;49.40;102272.25;5035537;28;20034;-50
2023/10/15 10:28:08;;;;;;;5.22;1.20;;;;;;;15.26;49.50;102289.00;5032806;28;20503;-48
2023/10/15 10:30:34;;;;;;;16.55;1.67;;;;;;;15.51;50.30;102313.94;5033961;28;20025;-47
2023/10/15 10:33:03;;;;;;;7.68;1.13;;;;;;;14.86;48.99;102300.56;5033558;28;20033;-49
2023/10/15 10:35:28;;;;;;;16.77;1.63;;;;;;;14.99;50.56;102305.19;5033208;28;20510;-45
2023/10/15 10:38:05;;;;;;;7.05;1.02;;;;;;;14.94;50.98;102306.81;5031689;28;20033;-48
2023/10/15 10:40:59;;;;;;;11.07;1.15;;;;;;;14.31;51.83;102308.16;5032151;28;20278;-47
2023/10/15 10:43:27;;;;;;;5.88;0.98;;;;;;;14.81;48.79;102307.47;5031653;28;20103;-45
2023/10/15 10:45:57;;;;;;;13.35;1.20;;;;;;;14.59;49.61;102305.28;5031682;28;20051;-48
2023/10/15 10:48:37;;;;;;;6.88;1.02;;;;;;;14.66;50.95;102314.16;5031744;28;20040;-44
2023/10/15 10:51:08;;;;;;;4.15;0.80;;;;;;;14.64;51.14;102319.38;5030958;28;20037;-47
2023/10/15 10:53:34;;;;;;;5.55;0.80;;;;;;;14.64;47.62;102313.25;5031793;28;20034;-45
2023/10/15 10:56:04;;;;;;;3.65;0.73;;;;;;;14.85;47.60;102322.41;5031227;28;20092;-46
2023/10/15 10:58:29;;;;;;;3.78;1.05;;;;;;;14.49;48.08;102317.34;5031606;28;20036;-45
2023/10/15 11:00:56;;;;;;;4.43;0.70;;;;;;;14.93;48.26;102322.56;5033438;28;20029;-46
2023/10/15 11:03:23;;;;;;;3.70;0.70;;;;;;;14.58;49.58;102328.00;5031342;28;20445;-45
2023/10/15 11:05:48;;;;;;;6.35;0.93;;;;;;;15.34;49.27;102323.28;5031559;28;20041;-45
2023/10/15 11:08:18;;;;;;;2.13;0.55;;;;;;;15.12;48.62;102334.31;5031409;28;20056;-45
2023/10/15 11:10:45;;;;;;;6.68;1.05;;;;;;;14.97;49.10;102327.00;5032916;28;20033;-45
2023/10/15 11:13:12;;;;;;;4.32;0.80;;;;;;;15.22;47.13;102336.22;5030851;28;20044;-46
2023/10/15 11:15:37;;;;;;;2.92;0.70;;;;;;;14.29;47.44;102329.13;5031808;28;20507;-45
2023/10/15 11:18:07;;;;;;;6.75;1.00;;;;;;;15.21;47.10;102332.72;5031273;28;20045;-42
2023/10/15 11:20:33;;;;;;;5.85;0.88;;;;;;;15.32;45.37;102333.78;5032520;28;20364;-48
2023/10/15 11:23:04;;;;;;;3.35;1.10;;;;;;;15.51;44.22;102324.44;5031420;28;20034;-47
2023/10/15 11:25:30;;;;;;;5.68;0.93;;;;;;;15.74;46.80;102330.97;5031464;28;20055;-52
2023/10/15 11:27:55;;;;;;;8.20;1.13;;;;;;;15.85;45.55;102325.03;5029597;28;20452;-49
2023/10/15 11:30:21;;;;;;;4.93;1.00;;;;;;;15.95;47.11;102335.69;5030823;28;20082;-44
2023/10/15 11:32:51;;;;;;;5.32;0.80;;;;;;;15.85;45.84;102339.06;5030409;28;20033;-48
2023/10/15 11:35:17;;;;;;;8.48;1.77;;;;;;;15.36;48.68;102347.88;5030069;28;20551;-48
2023/10/15 11:37:44;;;;;;;4.97;0.82;;;;;;;15.34;49.54;102347.84;5030290;28;20083;-50
2023/10/15 11:40:12;;;;;;;2.75;0.70;;;;;;;15.61;50.13;102344.81;5029932;28;20033;-47
2023/10/15 11:42:50;;;;;;;7.30;1.23;;;;;;;15.16;50.71;102346.63;5030335;28;20087;-45
2023/10/15 11:45:25;;;;;;;3.25;0.70;;;;;;;15.32;50.04;102352.16;5029912;28;20399;-50
2023/10/15 11:47:50;;;;;;;;;;;;;;;15.46;48.26;102347.16;5030863;28;20059;-46